Share

Mostar, Bosna i Hercegovina

Sarajevo (LQSA) Elev 1677 ft | 43.82 °N, 18.33 °E | Change Station

Current weather conditions updated 28 seconds ago

Light Rain
Slaba kiša
36 °F
Feels Like 36 °F
S
1
Vjetar Varijabla smjera vjetra Vjetar from Varijabla smjera vjetra
Izlazak sunca 6:02 AM
Zalazak sunca 7:35 PM
Moon Zadnja četvrt

Today is forecast to be Much Warmer than yesterday.

Pritisak 29.80 u
Vidljivost 1.2 milja
Oblaci Raštrkani oblaci 300 ft
Potpuno oblačno 1000 ft
Točka rose 36 °F
Vlažnost 100%
Kiša 0.00 u
Visina snijega Not available.
UV 0 od 16
Pollen Not available.
Kvalitet zraka Not available.
Flu Activity Not available.
METAR LQSA 180530Z VRB01KT 2000 -RA BR SCT003 OVC010 02/02 Q1009 NOSIG

More Conditions Fewer Conditions

Pritisak 29.80 u
Vidljivost 1.2 milja
Oblaci Raštrkani oblaci 300 ft
Potpuno oblačno 1000 ft
Točka rose 36 °F
Vlažnost 100%
Kiša 0.00 u
Visina snijega Not available.
UV 0 od 16
Pollen Not available.
Kvalitet zraka Not available.
Flu Activity Not available.
METAR LQSA 180530Z VRB01KT 2000 -RA BR SCT003 OVC010 02/02 Q1009 NOSIG

More Conditions Fewer Conditions

10-Day Forecast

Almanac

Astronomija

Apr. 18, 2014 Izlazak Zalazak
Trenutno vrijeme 6:02 AM CEST 7:35 PM CEST
Civilni sumrak 5:32 AM CEST 8:05 PM CEST
Nautički sumrak 4:55 AM CEST 8:41 PM CEST
Astronomski sumrak 4:17 AM CEST 9:20 PM CEST
Moon 11:06 PM CEST 8:04 AM CEST
Duljina trajanja vidljive svjetlosti 14h 32m
Duljina dana
13h 33m
Tomorrow will be 2m 48s longer.
Zadnja četvrt, 90% of the Moon is Illuminated
Danas
Zadnja četvrt
Tra 22
Zadnja četvrt
Tra 29
New
Svi 6
Prva četvrtina
Svi 14
Pun mjesec

Yesterday's Extremes

Country Highs Country Lows

Community

  • SUNRISE THROUGH THE TREES.
    SUNRISE THROUGH THE TREES.
  • Dog Wood Blossoms
    Dog Wood Blossoms
  • Morning Light
    Morning Light
  • New Day
    New Day
  • Lake Michigan Sunrise
    Lake Michigan Sunrise

WunderPhotos

Upload Photos

1,702,263 photos uploaded!

WunderBlogs® & News

Nearby

Kvalitet zraka

Not available.

Visina snijega

Not available.

Coastal Water Temperatures

Mjesto Temperatura
No Stations Reporting

Earthquake Activity

Grad Distance Mag. Time & Date
No recent earthquake activity has been reported nearby.
Minimum magnitude displayed is 2.5.

Nearby Weather Stations

There are no personal weather stations in this area.

What do you think?

We're not finished. Please let us know what you like, what you don't like, and what you are still missing.